Timeline UpdatesTrip UpdatesNews PostsPvt PostsTravel TipsAdmin PostsConv PostsFollowed PostsChat RequestsBlog PostsPNR Posts

Disclaimer
Search
 
 
Wed Jul 30, 2014 18:39:45 ISTHomeTrainsΣChainsAtlasPNRForumGalleryNewsFAQTripsMembersLoginFeedback
No Recent News for this Train
Other Trains in the News **new
Latest...
.
Sun Jun 15, 2014 (06:39PM)
⇐ Return Journey: Train# 13351

13352/Alappuzha-Dhanbad Express

Mar 06 2014 (2:56PM)
Change Departure Station:
Change Arrival Station:
Post a Train Travel TipPost a Train Travel Tip **new
Post a Comment/Question/Picture/VideoPost a Comment/Question/Picture/Video
Pantry/Catering
✓ Pantry Car Avbl
✓ Catering Avbl
Average!! Pantry goes with Dhanbad rake; Additional:the food was well...
Read more...
below average, not only the snacks and tea/coffee but also the meals were of poor quality.
Loco/Rake Reversals
VSKP/Visakhapatnam Junction (8); MAS/Chennai Central (12); SRR/Shoranur Junction (7);
RSA - Rake Sharing
Rake/Coach Composition
LOCO-SLR-GEN-S1-S2-S3-S4-S5-S6-S7-S8-PC-A1-B1-B2*-A2*-ST1*-ST2*-ST3*-ST4*-ST5*-GEN*-SLR*; * coaches indicate slip coaches to TATA Detached at ROU
Loco
Official Loco:- ALLP - MAS:- WAP-4/WAM-1 MAS - VSKP:- WAM-4/WAP-1 VSKP - ROU:-...
Read more...
WDM-3A/WDG-3A ROU - DHN :- WAM-4
News    PNR    Forum    Time-Table    Availability    Fare Chart    Map    Arr/Dep History    Trips    Gallery    ΣChains    X/O    Timeline    
Travel Time: 55h 15m    94 halts    Distance: 2533 km    Avg Speed: 45 km/hr
Type: Mail/Express
Zone: ECR/East Central
Departs @ 06:00 (Avg 7m late)
Platform# 1
SMTWTFS
Alappuzha/ALLP 
Arrives @ 13:15 +2 nights (Avg 15m late)
Platform# 5
SMTWTFS
Dhanbad Junction/DHN 

94 halts. 419 intermediate Stations between Alappuzha and Dhanbad Junction

Show ALL intermediate Stations  Show Old Time-Table

#CodeStation NameX/OArrivesAvgDepartsAvgHaltPFDay#KmSpeedElevZoneAddress
1ALLP»Alappuzha (3)»  -06:00+7110.0668mSRPh:0477-2253965, Kerala
2MAKMMararikkulam (1)  06:12+906:13+101m1113.16612mSRMararikulam, Kerala
3SRTLCherthala (3)X  06:23+1406:25+172m1124.1667mSRPh: 0478- 2812500, Kerala
4TUVRTuravur (2)X  06:34+2106:35+211m1134.1405mSRThuravoor, Kerala
5ERSErnakulam Junction (South) (6)  07:10+1307:15+135m1157.5533mSRErnakulam 682016, Kerala
6AWYAluva (3)X  07:37+1907:40+183m3176.95712mSRPh: 0484-2624141, Kerala
7TCRThrissur (4)  08:37+1108:40+113m21131.5366mSRThrissur Tel: 0487 2423150, Kerala
8SRRShoranur Junction (7)09:35+009:45+1310m--1164.55326mSRShoranur ph.no 0466-2222913, Kerala
9PGTPalakkad Junction (4)X  10:35+410:40+75m--1208.84584mSRPalghat Tel: 0491 2555231, Kerala
10CBECoimbatore Main Junction (6)  11:55+712:00+105m--1264.571416mSRCoimbatore 641001, Tamil Nadu
11TUPTiruppur (2)X  12:43+1812:45+192m21315.146305mSRTiruppur. Ph:0421-2200450, Tamil Nadu
12EDErode Junction (4)  13:50+414:00+1410m11365.067175mSRErode ph.no: 0424-2256111, Tamil Nadu
13SASalem Junction (6)X  14:55+1415:00+145m41426.878283mSRSalem, Tamil Nadu
14BQIBommidi  15:33+2015:35+192m--1469.8850mSRBommidi ph.no. 04346-244441, Tamil Nadu
15SLYSamalpatti  16:08+2216:10+232m--1516.350388mSRSamalpatti ph.no. 04341-245601, Tamil Nadu
16TPTTirupattur (2)  16:38+1716:40+172m--1539.618392mSRTirupattur ph.no. 04179-220062, Tamil Nadu
17JTJJolarpettai Junction (5)X  17:05+1617:10+195m41547.066405mSRJolarpettai, Tamil Nadu
18VNVaniyambadiX  17:24+2317:25+241m21562.567357mSRVaniyambadi, Tamil Nadu
19GYMGudiyattam (3)  18:04+2018:05+211m21606.364269mSRVellore, Tamil Nadu
20KPDKatpadi Junction (5)X  18:28+2318:30+252m21630.852213mSRVellore 632007, Tamil Nadu
21MCNMukundarayapuram (2)X  18:49+2618:50+301m--1647.459198mSRSipcot Ranipet, Tamil Nadu
22AJJArakkonam Junction (8)X  19:35+4219:40+405m21691.67091mSRArakkonam, Tamil Nadu
23TRLTiruvallur (6)  20:03+5220:05+1:002m11718.67250mSRTiruvallur, Tamil Nadu
24PERPerambur (4)XO  20:35+1:3020:37+1:302m11754.837mSRChennai-600011 Phone: 044-25510359, Tamil Nadu
25MASChennai Central (12)22:15+1523:00+1345m101760.3739mSRChennai 600003, Tamil Nadu
26SPESullurupeta (3)  00:08+3300:10+372m12842.7719mSR524121., Andhra Pradesh
27NYPNayadupeta (3)XO  00:33+3800:35+462m12869.91733mSRNayudupeta, Andhra Pradesh
28GDRGudur Junction (3)X  02:15+302:17+62m22897.69219mSCRGudur, Andhra Pradesh
29NLRNellore (4)  02:42+1502:43+161m22936.17921mSCRNellore, Andhra Pradesh
30BTTRBitragunta (2)  03:09+2203:10+271m12970.45815mSCRBitragunta, Andhra Pradesh
31KVZKavali (4)X  03:27+2903:28+301m32986.99121mSCRKavali, Andhra Pradesh
32SKMSingarayakonda (3)X  03:53+3803:54+381m121024.65326mSCRSingarayakonda, Andhra Pradesh
33OGLOngole (3)X  04:26+3704:27+371m121052.97612mSCROngole, Andhra Pradesh
34CJMChinnaganjam (3)X  04:50+4104:51+411m--21081.9819mSCRChinna Ganjam, Andhra Pradesh
35CLXChirala (4)  05:06+4305:07+441m--21102.2758mSCRChirala, Andhra Pradesh
36BPPBapatla (3)  05:19+4505:20+461m--21117.36910mSCRBapatla, Andhra Pradesh
37NDONidubrolu (3)X  05:38+4905:39+501m--21137.8839mSCRNidubrolu, Andhra Pradesh
38TELTenali Junction (5)X  05:55+5205:56+531m421159.92516mSCRTel: 08644-227834, Andhra Pradesh
39BZAVijayawada Junction (10)X  07:10+2307:30+2720m321191.17724mSCRVijayawada 520001, Andhra Pradesh
40EEEluru (3)  08:16+4708:17+481m221250.59019mSCREluru Ph.no. 08812 226401., Andhra Pradesh
41TDDTadepalligudem (3)X  08:49+5208:50+531m221298.34418mSCRTadepalligudem, Andhra Pradesh
42NDDNidadavolu Junction (3)  09:17+4709:18+491m--21318.33620mSCRNidadavolu jtn ph.no. 08813-210325, Andhra Pradesh
43KVRKovvur (3)  09:42+4609:43+491m--21332.62125mSCRWest Godavari, Andhra Pradesh
44GVNGodavari  09:57+4509:58+461m--21337.41524mSCRRajahmundry, Andhra Pradesh
45RJYRajahmundry (3)X  10:10+4610:15+465m321340.47023mSCRRajahmundry ph.no. 0883-2420541, Andhra Pradesh
46DWPDwarapudi (3)X  10:32+5310:33+541m--21360.34520mSCREast Godavari District, Andhra Pradesh
47APTAnaparti (3)  10:38+5410:39+551m--21364.17621mSCREast Godavari District, Andhra Pradesh
48SLOSamalkot Junction (3)X  11:00+5711:01+591m121390.66018mSCRSamalkot, Andhra Pradesh
49PAPPithapuram (2)  11:13+5611:14+571m--21402.75722mSCREast Godavari District, Andhra Pradesh
50GLPGollaprolu  11:20+1:0511:21+1:051m--21408.48219mSCRGollaprollu, Andhra Pradesh
51ANVAnnavaram (3)X  11:35+1:0111:36+1:011m321427.56727mSCREast Godavari District, Andhra Pradesh
52TUNITuni (2)X  11:51+1:1411:52+1:161m221444.16124mSCRTuni ph.no. 08854-252172, Andhra Pradesh
53NRPNarsipatnam Road (2)  12:14+1:0312:15+1:061m--21466.46718mSCRVisakhapatnam District, Andhra Pradesh
54YLMElamanchili (2)  12:31+1:0512:32+1:071m--21484.25323mSCRVisakhapatnam District, Andhra Pradesh
55AKPAnakapalle (3)X  12:59+4613:00+471m--21507.91230mSCRAnakapalle ph.no . 08924-221698, Andhra Pradesh
56DVDDuvvada (4)X  14:23+2314:25+242m--21523.92046mECoRVishakhapatnam District, Andhra Pradesh
57VSKPVisakhapatnam Junction (8)X15:15+715:35+1520m321540.23011mECoRVishakhapatnam 530001, Andhra Pradesh
58SCMSimhachalam (2)  15:51+515:53+52m--21548.37227mECoRVisakhapatnam, Andhra Pradesh
59KTVKottavalasa Junction (5)X  16:08+2316:10+242m--21566.46658mECoRVizianagaram District, Andhra Pradesh
60VZMVizianagaram Junction (5)X  16:42+2316:47+245m--21601.47263mECoRVizianagaram, Andhra Pradesh
61VBLBobbili Junction (2)X  17:32+2317:35+243m121655.768137mECoRBobbili, Andhra Pradesh
62PVPParvatipuram (3)  17:56+2217:58+222m--21679.625122mECoRParvatipuram, Andhra Pradesh
63PVPTParvatipuram Town  18:02+018:04+02m--21681.259121mECoRParvatipuram, Andhra Pradesh
64RGDARayagada (3)X  18:50+1519:05+1415m--21726.537229mECoRRayagada ph.no 06856-222407, Odisha
65SPRDSingapuram Road (2)  19:20+1219:22+122m--21735.751248mECoRJaykaypur, Odisha
66THVTherubaliX  19:33+2219:35+232m--21745.162270mECoRRayagada, Odisha
67MNGDMunigudaX  20:10+2320:12+242m--21781.171335mECoRMuniguda, Odisha
68AMBAmbodala  20:33+3020:35+302m--21806.165374mECoRState Highway 6, Odisha
69NRLRNorla RoadX  20:58+2821:00+282m--21831.140247mECoRKalahandi, Odisha
70RPRDRupra Road  21:10+2621:12+262m--21837.761233mECoRKalahandi, Odisha
71KSNGKesinga (1)  21:28+2521:30+282m121853.942183mECoRKesinga, Odisha
72TIGTitlagarh Junction (3)  21:50+2422:00+2810m321867.960212mECoRTitlagarh, Odisha
73BUDMBadmal  22:20+3122:22+322m--21887.869209mECoRDumerbahal Rd, Odisha
74BLGRBalangir (3)X  23:00+3523:05+455m--21931.266210mECoRBolangir, Odisha
75BRPLBarpali  23:57+4523:59+502m--21988.368178mECoRBarpali, Odisha
76BRGABargarh Road (3)X  00:16+5400:21+575m--32007.549185mECoRBargarh, Odisha
77ATSAttabira  00:43+5000:45+512m--32025.621164mECoRBargarh, Odisha
78SBPSambalpur Junction (3)X  01:55+1802:05+2210m--32050.115159mECoRSambalpur, Odisha
79SBPDSambalpur Road  02:11+2102:13+212m--32051.650161mECoRSambalpur, Odisha
80RGLRengali  02:38+2002:40+242m--32072.332208mECoRState Highway 10, Odisha
81JSGJharsuguda Junction (5)  03:30+2303:40+2210m--32098.778236mSERJharsuguda, Odisha
82BMBBamra (3)  04:08+2504:09+261m--32135.280259mSERBamra PH : 06642-229268, Odisha
83GPRaj Gangpur (3)X  04:35+2604:36+271m232169.853237mSERRaj Ganpur, Odisha
84ROURourkela Junction (5)X05:10+1805:30+1620m--32199.642198mSERRourkela, Odisha
85NXNNuagaon  06:09+1106:10+121m--32226.857218mSERKeonjhar, Odisha
86BANOBano  06:54+1906:55+211m--32268.974452mSERDist. Gumla, Jharkhand
87GBXGovindpur Road07:38+2107:40+212m--32322.163577mSERkhunti, Jharkhand
88HTEHatia (3)  08:20+1808:25+195m332363.928657mSER2788599, Jharkhand
89RNCRanchi Junction (6)  08:40+2008:55+1915m132370.949632mSERDiv HQ SER, Jharkhand
90MURIMuri Junction (3)X  10:08+1210:10+132m132431.039254mSER06522-222444, Jharkhand
91JAAJhalida (3)  10:29+1310:30+141m--32443.358297mSERJhalida, West Bengal
92PNWPundhag (3)  10:54+1510:55+161m132466.650291mSERDist - Puruliya -723215, West Bengal
93BKSCBokaro Steel City (3)  11:15+1611:25+1510m132483.231245mSER06542-253861, Jharkhand
94CRPChandrapura Junction (2)X  11:55+1111:58+153m132498.832227mECR06549-242555, Jharkhand
95KTHKatrasgarh (1)  12:37+1112:39+122m132519.223198mECRKatrasgarh, Jharkhand
96DHN•Dhanbad Junction (8)•  13:15+15-532533.0-235mECR2319801. Div. HQ ECR, Jharkhand
Scroll to Top
Scroll to Bottom